Terminal Aerodrome Forecast
Issued by NWS

Home | Current Version | Previous Version | Text Only | Print | Product List | Glossary On
Versions: 1 2 3 4 5 6 7 8 9 10 11 12 13
000
FTUS46 KSEW 161300 AAA
TAFCLM
TAF AMD
KCLM 161316Z 1613/1712 30004KT P6SM SCT120 BKN200
     FM161800 01005KT P6SM SCT120 SCT200
     FM170100 27008KT P6SM SCT040 BKN120
     FM171000 28008KT P6SM BKN015
      AMD NOT SKED=

USA.gov is the U.S. government's official web portal to all federal, state and local government web resources and services.